sensor_id;sensor_type;location;lat;lon;timestamp;P1;durP1;ratioP1;P2;durP2;ratioP2
11197;SDS011;5655;48.744;9.162;2024-03-23T00:56:07;2.90;;;2.35;;
11197;SDS011;5655;48.744;9.162;2024-03-23T00:58:32;4.13;;;2.40;;
11197;SDS011;5655;48.744;9.162;2024-03-23T01:00:58;3.08;;;2.13;;
11197;SDS011;5655;48.744;9.162;2024-03-23T01:03:23;3.35;;;2.40;;
11197;SDS011;5655;48.744;9.162;2024-03-23T01:05:48;2.92;;;2.17;;
11197;SDS011;5655;48.744;9.162;2024-03-23T01:08:14;2.60;;;2.20;;
11197;SDS011;5655;48.744;9.162;2024-03-23T01:10:39;4.60;;;2.38;;
11197;SDS011;5655;48.744;9.162;2024-03-23T01:13:05;5.13;;;2.60;;
11197;SDS011;5655;48.744;9.162;2024-03-23T01:15:30;3.63;;;2.00;;
11197;SDS011;5655;48.744;9.162;2024-03-23T01:17:56;2.13;;;1.92;;
11197;SDS011;5655;48.744;9.162;2024-03-23T01:20:21;5.07;;;2.45;;
11197;SDS011;5655;48.744;9.162;2024-03-23T01:22:46;5.35;;;2.28;;
11197;SDS011;5655;48.744;9.162;2024-03-23T01:25:12;3.42;;;2.10;;
11197;SDS011;5655;48.744;9.162;2024-03-23T01:27:37;5.45;;;2.38;;
11197;SDS011;5655;48.744;9.162;2024-03-23T01:30:02;3.13;;;1.90;;
11197;SDS011;5655;48.744;9.162;2024-03-23T01:32:28;4.20;;;2.22;;
11197;SDS011;5655;48.744;9.162;2024-03-23T01:34:53;4.28;;;2.50;;
11197;SDS011;5655;48.744;9.162;2024-03-23T01:37:18;6.72;;;2.35;;
11197;SDS011;5655;48.744;9.162;2024-03-23T01:39:44;3.03;;;1.95;;
11197;SDS011;5655;48.744;9.162;2024-03-23T01:42:09;3.13;;;2.60;;
11197;SDS011;5655;48.744;9.162;2024-03-23T01:44:34;5.00;;;2.20;;
11197;SDS011;5655;48.744;9.162;2024-03-23T01:47:00;3.20;;;2.13;;
11197;SDS011;5655;48.744;9.162;2024-03-23T01:49:25;3.45;;;2.10;;
11197;SDS011;5655;48.744;9.162;2024-03-23T01:51:51;4.03;;;2.45;;
11197;SDS011;5655;48.744;9.162;2024-03-23T01:54:16;3.05;;;2.30;;
11197;SDS011;5655;48.744;9.162;2024-03-23T01:56:41;3.85;;;2.40;;
11197;SDS011;5655;48.744;9.162;2024-03-23T01:59:07;3.42;;;2.90;;
11197;SDS011;5655;48.744;9.162;2024-03-23T02:01:33;3.92;;;2.28;;
11197;SDS011;5655;48.744;9.162;2024-03-23T02:04:01;3.33;;;2.20;;
11197;SDS011;5655;48.744;9.162;2024-03-23T02:06:26;2.60;;;1.90;;
11197;SDS011;5655;48.744;9.162;2024-03-23T02:08:52;3.42;;;2.08;;
11197;SDS011;5655;48.744;9.162;2024-03-23T02:11:19;6.10;;;2.90;;
11197;SDS011;5655;48.744;9.162;2024-03-23T02:13:44;5.72;;;2.45;;
11197;SDS011;5655;48.744;9.162;2024-03-23T02:16:09;5.28;;;2.22;;
11197;SDS011;5655;48.744;9.162;2024-03-23T02:18:35;5.40;;;2.28;;
11197;SDS011;5655;48.744;9.162;2024-03-23T02:21:00;5.07;;;2.25;;
11197;SDS011;5655;48.744;9.162;2024-03-23T02:23:26;3.72;;;2.47;;
11197;SDS011;5655;48.744;9.162;2024-03-23T02:25:51;2.75;;;2.50;;
11197;SDS011;5655;48.744;9.162;2024-03-23T02:28:18;2.97;;;2.35;;
11197;SDS011;5655;48.744;9.162;2024-03-23T02:30:44;5.93;;;2.67;;
11197;SDS011;5655;48.744;9.162;2024-03-23T02:33:09;4.43;;;2.47;;
11197;SDS011;5655;48.744;9.162;2024-03-23T02:35:35;2.95;;;2.50;;
11197;SDS011;5655;48.744;9.162;2024-03-23T02:38:00;3.60;;;2.60;;
11197;SDS011;5655;48.744;9.162;2024-03-23T02:40:25;3.72;;;2.85;;
11197;SDS011;5655;48.744;9.162;2024-03-23T02:42:51;4.18;;;2.63;;
11197;SDS011;5655;48.744;9.162;2024-03-23T02:45:17;4.55;;;2.35;;
11197;SDS011;5655;48.744;9.162;2024-03-23T02:47:42;2.75;;;2.25;;
11197;SDS011;5655;48.744;9.162;2024-03-23T02:50:08;2.70;;;2.20;;
11197;SDS011;5655;48.744;9.162;2024-03-23T02:52:34;2.85;;;2.25;;
11197;SDS011;5655;48.744;9.162;2024-03-23T02:54:59;2.60;;;2.05;;
11197;SDS011;5655;48.744;9.162;2024-03-23T02:57:26;2.95;;;2.30;;
11197;SDS011;5655;48.744;9.162;2024-03-23T02:59:52;2.50;;;2.10;;
11197;SDS011;5655;48.744;9.162;2024-03-23T03:02:17;2.72;;;2.10;;
11197;SDS011;5655;48.744;9.162;2024-03-23T03:04:43;4.32;;;2.65;;
11197;SDS011;5655;48.744;9.162;2024-03-23T03:07:08;2.95;;;2.22;;
11197;SDS011;5655;48.744;9.162;2024-03-23T03:09:33;2.80;;;2.40;;
11197;SDS011;5655;48.744;9.162;2024-03-23T03:12:00;4.47;;;2.50;;
11197;SDS011;5655;48.744;9.162;2024-03-23T03:14:26;2.45;;;2.13;;
11197;SDS011;5655;48.744;9.162;2024-03-23T03:16:52;2.67;;;2.10;;
11197;SDS011;5655;48.744;9.162;2024-03-23T03:19:17;2.50;;;2.30;;
11197;SDS011;5655;48.744;9.162;2024-03-23T03:21:43;5.50;;;2.30;;
11197;SDS011;5655;48.744;9.162;2024-03-23T03:24:08;2.97;;;2.55;;
11197;SDS011;5655;48.744;9.162;2024-03-23T03:26:33;5.45;;;2.28;;
11197;SDS011;5655;48.744;9.162;2024-03-23T03:28:59;4.28;;;2.10;;
11197;SDS011;5655;48.744;9.162;2024-03-23T03:31:24;4.43;;;2.10;;
11197;SDS011;5655;48.744;9.162;2024-03-23T03:33:49;4.82;;;2.50;;
11197;SDS011;5655;48.744;9.162;2024-03-23T03:36:18;3.53;;;2.78;;
11197;SDS011;5655;48.744;9.162;2024-03-23T03:38:43;4.72;;;2.60;;
11197;SDS011;5655;48.744;9.162;2024-03-23T03:41:08;5.10;;;2.70;;
11197;SDS011;5655;48.744;9.162;2024-03-23T03:43:34;4.88;;;2.60;;
11197;SDS011;5655;48.744;9.162;2024-03-23T03:45:59;4.53;;;2.88;;
11197;SDS011;5655;48.744;9.162;2024-03-23T03:48:25;4.18;;;2.75;;
11197;SDS011;5655;48.744;9.162;2024-03-23T03:50:51;5.18;;;2.42;;
11197;SDS011;5655;48.744;9.162;2024-03-23T03:53:17;2.90;;;2.45;;
11197;SDS011;5655;48.744;9.162;2024-03-23T03:55:42;3.70;;;2.50;;
11197;SDS011;5655;48.744;9.162;2024-03-23T03:58:08;3.42;;;2.40;;
11197;SDS011;5655;48.744;9.162;2024-03-23T04:00:33;6.57;;;2.80;;
11197;SDS011;5655;48.744;9.162;2024-03-23T04:02:58;4.05;;;2.83;;
11197;SDS011;5655;48.744;9.162;2024-03-23T04:05:23;4.00;;;2.55;;
11197;SDS011;5655;48.744;9.162;2024-03-23T04:07:49;6.35;;;2.88;;
11197;SDS011;5655;48.744;9.162;2024-03-23T04:10:14;3.45;;;2.95;;
11197;SDS011;5655;48.744;9.162;2024-03-23T04:12:43;3.53;;;2.80;;
11197;SDS011;5655;48.744;9.162;2024-03-23T04:15:09;6.13;;;2.90;;
11197;SDS011;5655;48.744;9.162;2024-03-23T04:17:35;3.47;;;2.83;;
11197;SDS011;5655;48.744;9.162;2024-03-23T04:20:01;4.90;;;2.83;;
11197;SDS011;5655;48.744;9.162;2024-03-23T04:22:27;4.18;;;2.67;;
11197;SDS011;5655;48.744;9.162;2024-03-23T04:24:53;2.92;;;2.60;;
11197;SDS011;5655;48.744;9.162;2024-03-23T04:27:19;5.10;;;2.60;;
11197;SDS011;5655;48.744;9.162;2024-03-23T04:29:48;4.97;;;2.97;;
11197;SDS011;5655;48.744;9.162;2024-03-23T04:32:16;7.25;;;2.80;;
11197;SDS011;5655;48.744;9.162;2024-03-23T04:34:42;5.82;;;3.15;;
11197;SDS011;5655;48.744;9.162;2024-03-23T04:37:09;3.80;;;2.70;;
11197;SDS011;5655;48.744;9.162;2024-03-23T04:39:35;5.00;;;3.00;;
11197;SDS011;5655;48.744;9.162;2024-03-23T04:42:01;3.92;;;2.90;;
11197;SDS011;5655;48.744;9.162;2024-03-23T04:44:27;4.05;;;2.70;;
11197;SDS011;5655;48.744;9.162;2024-03-23T04:46:53;3.65;;;2.65;;
11197;SDS011;5655;48.744;9.162;2024-03-23T04:49:18;3.30;;;2.80;;
11197;SDS011;5655;48.744;9.162;2024-03-23T04:51:44;6.63;;;3.03;;
11197;SDS011;5655;48.744;9.162;2024-03-23T04:54:11;6.30;;;2.90;;
11197;SDS011;5655;48.744;9.162;2024-03-23T04:56:37;4.63;;;2.75;;
11197;SDS011;5655;48.744;9.162;2024-03-23T04:59:02;4.75;;;3.95;;
11197;SDS011;5655;48.744;9.162;2024-03-23T05:01:29;9.70;;;4.72;;
11197;SDS011;5655;48.744;9.162;2024-03-23T05:03:56;8.65;;;5.97;;
11197;SDS011;5655;48.744;9.162;2024-03-23T05:06:22;9.77;;;7.38;;
11197;SDS011;5655;48.744;9.162;2024-03-23T05:08:47;10.65;;;7.63;;
11197;SDS011;5655;48.744;9.162;2024-03-23T05:11:12;12.13;;;8.82;;
11197;SDS011;5655;48.744;9.162;2024-03-23T05:13:38;13.70;;;9.48;;
11197;SDS011;5655;48.744;9.162;2024-03-23T05:16:03;12.00;;;8.85;;
11197;SDS011;5655;48.744;9.162;2024-03-23T05:18:29;14.73;;;9.68;;
11197;SDS011;5655;48.744;9.162;2024-03-23T05:20:58;16.15;;;10.85;;
11197;SDS011;5655;48.744;9.162;2024-03-23T05:23:24;16.60;;;10.93;;
11197;SDS011;5655;48.744;9.162;2024-03-23T05:25:50;16.20;;;11.30;;
11197;SDS011;5655;48.744;9.162;2024-03-23T05:28:16;15.93;;;11.80;;
11197;SDS011;5655;48.744;9.162;2024-03-23T05:30:42;16.73;;;12.45;;
11197;SDS011;5655;48.744;9.162;2024-03-23T05:33:07;16.95;;;12.52;;
11197;SDS011;5655;48.744;9.162;2024-03-23T05:35:32;19.13;;;12.68;;
11197;SDS011;5655;48.744;9.162;2024-03-23T05:37:58;22.25;;;13.20;;
11197;SDS011;5655;48.744;9.162;2024-03-23T05:40:26;21.35;;;13.68;;
11197;SDS011;5655;48.744;9.162;2024-03-23T05:42:52;18.65;;;13.70;;
11197;SDS011;5655;48.744;9.162;2024-03-23T05:45:18;21.30;;;13.70;;
11197;SDS011;5655;48.744;9.162;2024-03-23T05:47:44;20.10;;;13.07;;
11197;SDS011;5655;48.744;9.162;2024-03-23T05:50:09;19.17;;;13.93;;
11197;SDS011;5655;48.744;9.162;2024-03-23T05:52:37;15.32;;;11.38;;
11197;SDS011;5655;48.744;9.162;2024-03-23T05:55:03;16.80;;;10.38;;
11197;SDS011;5655;48.744;9.162;2024-03-23T05:57:29;16.63;;;10.93;;
11197;SDS011;5655;48.744;9.162;2024-03-23T05:59:54;13.57;;;9.60;;
11197;SDS011;5655;48.744;9.162;2024-03-23T06:02:20;13.00;;;8.88;;
11197;SDS011;5655;48.744;9.162;2024-03-23T06:04:45;13.85;;;9.35;;
11197;SDS011;5655;48.744;9.162;2024-03-23T06:07:11;14.98;;;9.68;;
11197;SDS011;5655;48.744;9.162;2024-03-23T06:09:38;14.15;;;9.15;;
11197;SDS011;5655;48.744;9.162;2024-03-23T06:12:04;9.63;;;7.32;;
11197;SDS011;5655;48.744;9.162;2024-03-23T06:14:30;8.82;;;5.97;;
11197;SDS011;5655;48.744;9.162;2024-03-23T06:16:55;8.85;;;5.75;;
11197;SDS011;5655;48.744;9.162;2024-03-23T06:19:20;6.23;;;4.40;;
11197;SDS011;5655;48.744;9.162;2024-03-23T06:21:46;7.00;;;3.78;;
11197;SDS011;5655;48.744;9.162;2024-03-23T06:24:11;5.38;;;3.38;;
11197;SDS011;5655;48.744;9.162;2024-03-23T06:26:37;3.42;;;2.60;;
11197;SDS011;5655;48.744;9.162;2024-03-23T06:29:02;3.90;;;2.72;;
11197;SDS011;5655;48.744;9.162;2024-03-23T06:31:28;2.90;;;2.35;;
11197;SDS011;5655;48.744;9.162;2024-03-23T06:33:54;3.47;;;2.00;;
11197;SDS011;5655;48.744;9.162;2024-03-23T06:36:20;2.63;;;1.38;;
11197;SDS011;5655;48.744;9.162;2024-03-23T06:38:45;3.55;;;1.30;;
11197;SDS011;5655;48.744;9.162;2024-03-23T06:41:10;3.00;;;1.25;;
11197;SDS011;5655;48.744;9.162;2024-03-23T06:43:36;1.30;;;0.80;;
11197;SDS011;5655;48.744;9.162;2024-03-23T06:46:02;1.50;;;0.90;;
11197;SDS011;5655;48.744;9.162;2024-03-23T06:48:29;0.75;;;0.50;;
11197;SDS011;5655;48.744;9.162;2024-03-23T06:50:55;0.68;;;0.60;;
11197;SDS011;5655;48.744;9.162;2024-03-23T06:53:22;0.85;;;0.52;;
11197;SDS011;5655;48.744;9.162;2024-03-23T06:55:50;0.70;;;0.60;;
11197;SDS011;5655;48.744;9.162;2024-03-23T06:58:17;0.60;;;0.57;;
11197;SDS011;5655;48.744;9.162;2024-03-23T07:00:43;0.73;;;0.70;;
11197;SDS011;5655;48.744;9.162;2024-03-23T07:03:08;0.85;;;0.70;;
11197;SDS011;5655;48.744;9.162;2024-03-23T07:05:33;0.60;;;0.60;;
11197;SDS011;5655;48.744;9.162;2024-03-23T07:07:58;0.77;;;0.77;;
11197;SDS011;5655;48.744;9.162;2024-03-23T07:10:24;0.75;;;0.50;;
11197;SDS011;5655;48.744;9.162;2024-03-23T07:12:49;0.70;;;0.60;;
11197;SDS011;5655;48.744;9.162;2024-03-23T07:15:14;0.57;;;0.40;;
11197;SDS011;5655;48.744;9.162;2024-03-23T07:17:41;0.47;;;0.47;;
11197;SDS011;5655;48.744;9.162;2024-03-23T07:20:06;1.58;;;0.50;;
11197;SDS011;5655;48.744;9.162;2024-03-23T07:22:35;0.57;;;0.57;;
11197;SDS011;5655;48.744;9.162;2024-03-23T07:25:00;0.50;;;0.50;;
11197;SDS011;5655;48.744;9.162;2024-03-23T07:27:26;0.43;;;0.40;;
11197;SDS011;5655;48.744;9.162;2024-03-23T07:29:51;0.60;;;0.47;;
11197;SDS011;5655;48.744;9.162;2024-03-23T07:32:17;0.40;;;0.40;;
11197;SDS011;5655;48.744;9.162;2024-03-23T07:34:42;0.38;;;0.38;;
11197;SDS011;5655;48.744;9.162;2024-03-23T07:37:09;0.80;;;0.50;;
11197;SDS011;5655;48.744;9.162;2024-03-23T07:39:35;0.20;;;0.20;;
11197;SDS011;5655;48.744;9.162;2024-03-23T07:42:00;0.30;;;0.30;;
11197;SDS011;5655;48.744;9.162;2024-03-23T07:44:25;0.52;;;0.40;;
11197;SDS011;5655;48.744;9.162;2024-03-23T07:46:50;0.38;;;0.38;;
11197;SDS011;5655;48.744;9.162;2024-03-23T07:49:16;0.70;;;0.50;;
11197;SDS011;5655;48.744;9.162;2024-03-23T07:51:41;0.50;;;0.40;;
11197;SDS011;5655;48.744;9.162;2024-03-23T07:54:06;1.48;;;0.40;;
11197;SDS011;5655;48.744;9.162;2024-03-23T07:56:32;0.38;;;0.38;;
11197;SDS011;5655;48.744;9.162;2024-03-23T07:58:57;0.50;;;0.40;;
11197;SDS011;5655;48.744;9.162;2024-03-23T08:01:22;0.30;;;0.30;;
11197;SDS011;5655;48.744;9.162;2024-03-23T08:03:49;0.47;;;0.40;;
11197;SDS011;5655;48.744;9.162;2024-03-23T08:08:48;0.93;;;0.50;;
11197;SDS011;5655;48.744;9.162;2024-03-23T08:11:15;0.70;;;0.55;;
11197;SDS011;5655;48.744;9.162;2024-03-23T08:13:41;1.25;;;0.70;;
11197;SDS011;5655;48.744;9.162;2024-03-23T08:16:07;1.17;;;0.68;;
11197;SDS011;5655;48.744;9.162;2024-03-23T08:18:33;0.50;;;0.50;;
11197;SDS011;5655;48.744;9.162;2024-03-23T08:21:00;0.52;;;0.52;;
11197;SDS011;5655;48.744;9.162;2024-03-23T08:23:29;0.73;;;0.70;;
11197;SDS011;5655;48.744;9.162;2024-03-23T08:26:02;1.02;;;0.60;;
11197;SDS011;5655;48.744;9.162;2024-03-23T08:28:28;0.88;;;0.88;;
11197;SDS011;5655;48.744;9.162;2024-03-23T08:30:54;0.70;;;0.70;;
11197;SDS011;5655;48.744;9.162;2024-03-23T08:33:20;0.80;;;0.80;;
11197;SDS011;5655;48.744;9.162;2024-03-23T08:35:55;0.70;;;0.70;;
11197;SDS011;5655;48.744;9.162;2024-03-23T08:38:22;3.63;;;2.38;;
11197;SDS011;5655;48.744;9.162;2024-03-23T08:40:55;2.63;;;1.20;;
11197;SDS011;5655;48.744;9.162;2024-03-23T08:43:25;2.00;;;1.10;;
11197;SDS011;5655;48.744;9.162;2024-03-23T08:45:51;3.05;;;1.20;;
11197;SDS011;5655;48.744;9.162;2024-03-23T08:48:17;1.40;;;1.00;;
11197;SDS011;5655;48.744;9.162;2024-03-23T08:50:43;1.45;;;1.33;;
11197;SDS011;5655;48.744;9.162;2024-03-23T08:53:08;2.38;;;1.55;;
11197;SDS011;5655;48.744;9.162;2024-03-23T08:55:34;2.60;;;1.17;;
11197;SDS011;5655;48.744;9.162;2024-03-23T08:58:00;1.63;;;1.20;;
11197;SDS011;5655;48.744;9.162;2024-03-23T09:00:26;2.15;;;1.02;;
11197;SDS011;5655;48.744;9.162;2024-03-23T09:02:51;1.42;;;1.20;;
11197;SDS011;5655;48.744;9.162;2024-03-23T09:05:16;2.65;;;1.40;;
11197;SDS011;5655;48.744;9.162;2024-03-23T09:07:42;2.58;;;1.25;;
11197;SDS011;5655;48.744;9.162;2024-03-23T09:10:07;2.08;;;1.38;;
11197;SDS011;5655;48.744;9.162;2024-03-23T09:12:33;2.28;;;1.48;;
11197;SDS011;5655;48.744;9.162;2024-03-23T09:14:58;2.38;;;1.48;;
11197;SDS011;5655;48.744;9.162;2024-03-23T09:17:23;3.33;;;1.45;;
11197;SDS011;5655;48.744;9.162;2024-03-23T09:19:49;5.20;;;2.15;;
11197;SDS011;5655;48.744;9.162;2024-03-23T09:22:14;5.90;;;2.13;;
11197;SDS011;5655;48.744;9.162;2024-03-23T09:24:39;2.88;;;1.95;;
11197;SDS011;5655;48.744;9.162;2024-03-23T09:27:05;5.00;;;2.33;;
11197;SDS011;5655;48.744;9.162;2024-03-23T09:29:30;4.90;;;2.42;;
11197;SDS011;5655;48.744;9.162;2024-03-23T09:31:55;8.18;;;2.55;;
11197;SDS011;5655;48.744;9.162;2024-03-23T09:34:21;6.35;;;2.75;;
11197;SDS011;5655;48.744;9.162;2024-03-23T09:36:46;5.80;;;2.80;;
11197;SDS011;5655;48.744;9.162;2024-03-23T09:39:12;6.85;;;3.30;;
11197;SDS011;5655;48.744;9.162;2024-03-23T09:41:38;5.55;;;2.58;;
11197;SDS011;5655;48.744;9.162;2024-03-23T09:44:04;6.32;;;2.72;;
11197;SDS011;5655;48.744;9.162;2024-03-23T09:46:30;6.25;;;2.83;;
11197;SDS011;5655;48.744;9.162;2024-03-23T09:48:59;6.63;;;2.78;;
11197;SDS011;5655;48.744;9.162;2024-03-23T09:51:25;6.68;;;2.85;;
11197;SDS011;5655;48.744;9.162;2024-03-23T09:53:50;7.22;;;3.22;;
11197;SDS011;5655;48.744;9.162;2024-03-23T09:56:17;8.50;;;3.38;;
11197;SDS011;5655;48.744;9.162;2024-03-23T09:58:42;10.07;;;3.40;;
11197;SDS011;5655;48.744;9.162;2024-03-23T10:01:08;5.55;;;2.85;;
11197;SDS011;5655;48.744;9.162;2024-03-23T10:03:42;5.55;;;2.90;;
11197;SDS011;5655;48.744;9.162;2024-03-23T10:06:10;4.35;;;2.63;;
11197;SDS011;5655;48.744;9.162;2024-03-23T10:08:36;5.53;;;2.78;;
11197;SDS011;5655;48.744;9.162;2024-03-23T10:11:22;6.43;;;2.90;;
11197;SDS011;5655;48.744;9.162;2024-03-23T10:13:47;7.47;;;3.33;;
11197;SDS011;5655;48.744;9.162;2024-03-23T10:16:20;9.32;;;3.10;;
11197;SDS011;5655;48.744;9.162;2024-03-23T10:18:47;7.97;;;3.17;;
11197;SDS011;5655;48.744;9.162;2024-03-23T10:21:13;5.50;;;2.47;;
11197;SDS011;5655;48.744;9.162;2024-03-23T10:23:40;9.18;;;2.85;;
11197;SDS011;5655;48.744;9.162;2024-03-23T10:28:55;6.35;;;2.90;;
11197;SDS011;5655;48.744;9.162;2024-03-23T10:31:26;5.28;;;2.95;;
11197;SDS011;5655;48.744;9.162;2024-03-23T10:33:56;7.75;;;3.15;;
11197;SDS011;5655;48.744;9.162;2024-03-23T10:36:22;10.85;;;3.95;;
11197;SDS011;5655;48.744;9.162;2024-03-23T10:38:49;12.05;;;2.90;;
11197;SDS011;5655;48.744;9.162;2024-03-23T10:41:15;7.03;;;2.58;;
11197;SDS011;5655;48.744;9.162;2024-03-23T10:43:41;8.20;;;3.17;;
11197;SDS011;5655;48.744;9.162;2024-03-23T10:46:08;7.00;;;2.83;;
11197;SDS011;5655;48.744;9.162;2024-03-23T10:48:34;4.80;;;2.58;;
11197;SDS011;5655;48.744;9.162;2024-03-23T10:50:59;7.90;;;2.83;;
11197;SDS011;5655;48.744;9.162;2024-03-23T10:53:25;9.75;;;3.45;;
11197;SDS011;5655;48.744;9.162;2024-03-23T10:55:52;4.15;;;2.58;;
11197;SDS011;5655;48.744;9.162;2024-03-23T10:58:21;6.03;;;2.85;;
11197;SDS011;5655;48.744;9.162;2024-03-23T11:00:51;5.10;;;2.70;;
11197;SDS011;5655;48.744;9.162;2024-03-23T11:03:37;6.10;;;2.50;;
11197;SDS011;5655;48.744;9.162;2024-03-23T11:06:04;7.00;;;2.90;;
11197;SDS011;5655;48.744;9.162;2024-03-23T11:08:34;7.43;;;3.35;;
11197;SDS011;5655;48.744;9.162;2024-03-23T11:11:21;8.10;;;3.55;;
11197;SDS011;5655;48.744;9.162;2024-03-23T11:13:51;5.20;;;2.75;;
11197;SDS011;5655;48.744;9.162;2024-03-23T11:16:30;3.80;;;2.63;;
11197;SDS011;5655;48.744;9.162;2024-03-23T11:22:03;5.13;;;3.33;;
11197;SDS011;5655;48.744;9.162;2024-03-23T11:24:33;7.40;;;3.20;;
11197;SDS011;5655;48.744;9.162;2024-03-23T11:26:58;5.53;;;3.00;;
11197;SDS011;5655;48.744;9.162;2024-03-23T11:29:26;7.43;;;3.55;;
11197;SDS011;5655;48.744;9.162;2024-03-23T11:31:52;4.15;;;2.53;;
11197;SDS011;5655;48.744;9.162;2024-03-23T11:34:19;5.97;;;2.75;;
11197;SDS011;5655;48.744;9.162;2024-03-23T11:36:45;7.47;;;2.75;;
11197;SDS011;5655;48.744;9.162;2024-03-23T11:39:11;7.80;;;3.42;;
11197;SDS011;5655;48.744;9.162;2024-03-23T11:41:50;4.30;;;2.20;;
11197;SDS011;5655;48.744;9.162;2024-03-23T11:46:41;4.70;;;2.88;;
11197;SDS011;5655;48.744;9.162;2024-03-23T11:49:06;3.72;;;2.30;;
11197;SDS011;5655;48.744;9.162;2024-03-23T11:51:32;4.15;;;1.80;;
11197;SDS011;5655;48.744;9.162;2024-03-23T11:54:07;4.03;;;2.00;;
11197;SDS011;5655;48.744;9.162;2024-03-23T11:56:33;6.20;;;1.70;;
11197;SDS011;5655;48.744;9.162;2024-03-23T11:58:58;6.10;;;1.65;;
11197;SDS011;5655;48.744;9.162;2024-03-23T12:01:23;3.88;;;1.80;;
11197;SDS011;5655;48.744;9.162;2024-03-23T12:03:49;4.88;;;1.60;;
11197;SDS011;5655;48.744;9.162;2024-03-23T12:06:19;4.70;;;2.05;;
11197;SDS011;5655;48.744;9.162;2024-03-23T12:08:44;3.55;;;1.23;;
11197;SDS011;5655;48.744;9.162;2024-03-23T12:11:15;6.43;;;1.45;;
11197;SDS011;5655;48.744;9.162;2024-03-23T12:13:44;4.95;;;2.20;;
11197;SDS011;5655;48.744;9.162;2024-03-23T12:18:42;5.85;;;1.50;;
11197;SDS011;5655;48.744;9.162;2024-03-23T12:21:08;2.92;;;1.50;;
11197;SDS011;5655;48.744;9.162;2024-03-23T12:23:34;3.53;;;1.60;;
11197;SDS011;5655;48.744;9.162;2024-03-23T12:25:59;3.10;;;1.50;;
11197;SDS011;5655;48.744;9.162;2024-03-23T12:28:25;4.50;;;1.58;;
11197;SDS011;5655;48.744;9.162;2024-03-23T12:30:51;3.63;;;1.33;;
11197;SDS011;5655;48.744;9.162;2024-03-23T12:33:17;10.68;;;1.63;;
11197;SDS011;5655;48.744;9.162;2024-03-23T12:35:42;3.30;;;1.55;;
11197;SDS011;5655;48.744;9.162;2024-03-23T12:38:08;7.13;;;1.98;;
11197;SDS011;5655;48.744;9.162;2024-03-23T12:40:33;4.63;;;1.70;;
11197;SDS011;5655;48.744;9.162;2024-03-23T12:42:58;5.75;;;1.70;;
11197;SDS011;5655;48.744;9.162;2024-03-23T12:45:24;7.50;;;1.95;;
11197;SDS011;5655;48.744;9.162;2024-03-23T12:47:49;5.45;;;1.80;;
11197;SDS011;5655;48.744;9.162;2024-03-23T12:50:15;6.03;;;1.45;;
11197;SDS011;5655;48.744;9.162;2024-03-23T12:52:40;6.75;;;2.47;;
11197;SDS011;5655;48.744;9.162;2024-03-23T12:55:06;6.93;;;2.55;;
11197;SDS011;5655;48.744;9.162;2024-03-23T12:57:32;9.52;;;2.22;;
11197;SDS011;5655;48.744;9.162;2024-03-23T12:59:58;6.28;;;2.15;;
11197;SDS011;5655;48.744;9.162;2024-03-23T13:02:23;5.85;;;2.22;;
11197;SDS011;5655;48.744;9.162;2024-03-23T13:04:49;9.98;;;2.13;;
11197;SDS011;5655;48.744;9.162;2024-03-23T13:07:15;5.75;;;1.90;;
11197;SDS011;5655;48.744;9.162;2024-03-23T13:09:41;8.55;;;2.35;;
11197;SDS011;5655;48.744;9.162;2024-03-23T13:12:06;10.25;;;2.33;;
11197;SDS011;5655;48.744;9.162;2024-03-23T13:14:32;9.40;;;2.92;;
11197;SDS011;5655;48.744;9.162;2024-03-23T13:16:57;7.47;;;2.35;;
11197;SDS011;5655;48.744;9.162;2024-03-23T13:19:23;5.70;;;2.20;;
11197;SDS011;5655;48.744;9.162;2024-03-23T13:21:52;6.22;;;2.50;;
11197;SDS011;5655;48.744;9.162;2024-03-23T13:24:23;7.13;;;2.30;;
11197;SDS011;5655;48.744;9.162;2024-03-23T13:26:49;4.47;;;1.77;;
11197;SDS011;5655;48.744;9.162;2024-03-23T13:29:19;6.20;;;1.75;;
11197;SDS011;5655;48.744;9.162;2024-03-23T13:31:45;5.38;;;1.65;;
11197;SDS011;5655;48.744;9.162;2024-03-23T13:34:11;5.47;;;1.60;;
11197;SDS011;5655;48.744;9.162;2024-03-23T13:36:39;4.57;;;1.30;;
11197;SDS011;5655;48.744;9.162;2024-03-23T13:39:05;4.38;;;0.85;;
11197;SDS011;5655;48.744;9.162;2024-03-23T13:41:31;2.55;;;0.75;;
11197;SDS011;5655;48.744;9.162;2024-03-23T13:43:56;4.45;;;0.93;;
11197;SDS011;5655;48.744;9.162;2024-03-23T13:46:22;6.28;;;1.40;;
11197;SDS011;5655;48.744;9.162;2024-03-23T13:48:47;6.20;;;1.10;;
11197;SDS011;5655;48.744;9.162;2024-03-23T13:51:12;3.35;;;1.25;;
11197;SDS011;5655;48.744;9.162;2024-03-23T13:53:38;3.08;;;0.80;;
11197;SDS011;5655;48.744;9.162;2024-03-23T13:56:03;1.92;;;0.95;;
11197;SDS011;5655;48.744;9.162;2024-03-23T13:58:29;3.40;;;1.02;;
11197;SDS011;5655;48.744;9.162;2024-03-23T14:00:56;3.25;;;1.10;;
11197;SDS011;5655;48.744;9.162;2024-03-23T14:03:23;3.55;;;0.90;;
11197;SDS011;5655;48.744;9.162;2024-03-23T14:05:48;3.65;;;1.10;;
11197;SDS011;5655;48.744;9.162;2024-03-23T14:08:13;1.45;;;1.10;;
11197;SDS011;5655;48.744;9.162;2024-03-23T14:10:42;4.20;;;1.38;;
11197;SDS011;5655;48.744;9.162;2024-03-23T14:13:08;4.03;;;0.90;;
11197;SDS011;5655;48.744;9.162;2024-03-23T14:15:33;3.30;;;1.27;;
11197;SDS011;5655;48.744;9.162;2024-03-23T14:17:59;2.97;;;1.20;;
11197;SDS011;5655;48.744;9.162;2024-03-23T14:20:24;5.53;;;1.35;;
11197;SDS011;5655;48.744;9.162;2024-03-23T14:22:50;3.42;;;1.58;;
11197;SDS011;5655;48.744;9.162;2024-03-23T14:25:16;3.92;;;1.00;;
11197;SDS011;5655;48.744;9.162;2024-03-23T14:27:45;1.90;;;0.73;;
11197;SDS011;5655;48.744;9.162;2024-03-23T14:30:11;0.82;;;0.68;;
11197;SDS011;5655;48.744;9.162;2024-03-23T14:32:37;1.90;;;0.70;;
11197;SDS011;5655;48.744;9.162;2024-03-23T14:35:03;2.47;;;0.90;;
11197;SDS011;5655;48.744;9.162;2024-03-23T14:37:30;2.55;;;0.80;;
11197;SDS011;5655;48.744;9.162;2024-03-23T14:39:56;2.67;;;0.80;;
11197;SDS011;5655;48.744;9.162;2024-03-23T14:42:22;1.58;;;0.90;;
11197;SDS011;5655;48.744;9.162;2024-03-23T14:44:47;1.15;;;0.93;;
11197;SDS011;5655;48.744;9.162;2024-03-23T14:47:12;2.03;;;1.10;;
11197;SDS011;5655;48.744;9.162;2024-03-23T14:49:38;2.00;;;0.60;;
11197;SDS011;5655;48.744;9.162;2024-03-23T14:52:03;2.53;;;0.60;;
11197;SDS011;5655;48.744;9.162;2024-03-23T14:54:29;1.95;;;0.88;;
11197;SDS011;5655;48.744;9.162;2024-03-23T14:56:54;3.15;;;1.00;;
11197;SDS011;5655;48.744;9.162;2024-03-23T14:59:21;2.97;;;1.08;;
11197;SDS011;5655;48.744;9.162;2024-03-23T15:01:46;2.55;;;0.98;;
11197;SDS011;5655;48.744;9.162;2024-03-23T15:04:11;3.50;;;0.90;;
11197;SDS011;5655;48.744;9.162;2024-03-23T15:06:37;2.60;;;1.00;;
11197;SDS011;5655;48.744;9.162;2024-03-23T15:09:02;4.15;;;1.00;;
11197;SDS011;5655;48.744;9.162;2024-03-23T15:11:32;2.92;;;1.23;;
11197;SDS011;5655;48.744;9.162;2024-03-23T15:13:58;4.85;;;1.10;;
11197;SDS011;5655;48.744;9.162;2024-03-23T15:16:23;1.27;;;1.08;;
11197;SDS011;5655;48.744;9.162;2024-03-23T15:18:48;2.42;;;1.10;;
11197;SDS011;5655;48.744;9.162;2024-03-23T15:21:14;3.88;;;1.15;;
11197;SDS011;5655;48.744;9.162;2024-03-23T15:23:46;1.23;;;1.08;;
11197;SDS011;5655;48.744;9.162;2024-03-23T15:26:11;2.97;;;1.00;;
11197;SDS011;5655;48.744;9.162;2024-03-23T15:28:36;4.15;;;1.30;;
11197;SDS011;5655;48.744;9.162;2024-03-23T15:31:34;2.20;;;0.82;;
11197;SDS011;5655;48.744;9.162;2024-03-23T15:34:00;2.53;;;1.02;;
11197;SDS011;5655;48.744;9.162;2024-03-23T15:36:25;2.03;;;0.73;;
11197;SDS011;5655;48.744;9.162;2024-03-23T15:38:51;2.25;;;0.80;;
11197;SDS011;5655;48.744;9.162;2024-03-23T15:41:16;2.88;;;1.00;;
11197;SDS011;5655;48.744;9.162;2024-03-23T15:43:42;3.30;;;1.02;;
11197;SDS011;5655;48.744;9.162;2024-03-23T15:46:07;3.28;;;1.13;;
11197;SDS011;5655;48.744;9.162;2024-03-23T15:48:34;2.22;;;1.00;;
11197;SDS011;5655;48.744;9.162;2024-03-23T15:51:02;1.90;;;0.98;;
11197;SDS011;5655;48.744;9.162;2024-03-23T15:53:29;1.27;;;1.13;;
11197;SDS011;5655;48.744;9.162;2024-03-23T15:55:55;2.60;;;0.80;;
11197;SDS011;5655;48.744;9.162;2024-03-23T15:58:21;3.80;;;1.20;;
11197;SDS011;5655;48.744;9.162;2024-03-23T16:03:22;1.10;;;0.77;;
11197;SDS011;5655;48.744;9.162;2024-03-23T16:05:54;2.88;;;1.15;;